createdAt,value
2022-08-07T00:17:04.195Z,25.11
2022-08-07T00:37:04.861Z,25.11
2022-08-07T00:57:04.679Z,25.11
2022-08-07T01:17:07.102Z,25.11
2022-08-07T01:37:04.640Z,25.11
2022-08-07T01:57:04.611Z,25.11
2022-08-07T02:17:04.586Z,25.11
2022-08-07T02:37:06.004Z,25.11
2022-08-07T02:57:06.511Z,25.11
2022-08-07T03:17:04.669Z,25.11
2022-08-07T03:37:12.021Z,25.11
2022-08-07T03:57:07.292Z,25.11
2022-08-07T04:37:03.735Z,25.11
2022-08-07T04:58:08.473Z,25.11
2022-08-07T05:57:03.417Z,25.11
2022-08-07T06:57:04.352Z,25.11
2022-08-07T09:37:04.179Z,25.1
2022-08-07T10:17:04.148Z,25.09
2022-08-07T10:37:04.760Z,25.09
2022-08-07T10:57:04.545Z,25.09
2022-08-07T11:37:04.050Z,25.09
2022-08-07T11:57:04.035Z,25.08
2022-08-07T12:17:04.299Z,25.08
2022-08-07T12:37:08.393Z,25.07
2022-08-07T12:57:07.214Z,25.07
2022-08-07T13:57:03.916Z,25.06
2022-08-07T16:38:02.861Z,25.03
2022-08-07T17:57:03.657Z,25.02
2022-08-07T19:37:09.806Z,25.01
2022-08-07T19:57:53.220Z,25.01
2022-08-07T20:17:03.510Z,25.01
2022-08-07T20:37:03.482Z,25.01
2022-08-07T20:57:03.463Z,25.01
2022-08-07T21:37:02.657Z,25.01
2022-08-07T21:57:03.400Z,25.01
2022-08-07T22:17:03.889Z,25.01
2022-08-07T22:37:03.362Z,25.01
2022-08-07T22:57:03.336Z,25.01
2022-08-07T23:17:03.195Z,25.01
2022-08-07T23:37:19.730Z,25
2022-08-07T23:57:03.280Z,25.01
